createdAt,value
2018-11-20T00:00:07.738Z,19.90
2018-11-20T00:01:07.665Z,20.10
2018-11-20T00:02:07.592Z,21.00
2018-11-20T00:03:07.544Z,20.20
2018-11-20T00:04:07.456Z,19.50
2018-11-20T00:05:07.394Z,18.60
2018-11-20T00:06:07.318Z,19.10
2018-11-20T00:07:07.250Z,19.50
2018-11-20T00:08:07.182Z,19.70
2018-11-20T00:09:07.135Z,20.10
2018-11-20T00:10:07.041Z,19.60
2018-11-20T00:11:06.971Z,20.20
2018-11-20T00:12:06.902Z,19.70
2018-11-20T00:13:06.839Z,19.40
2018-11-20T00:14:06.772Z,20.40
2018-11-20T00:15:06.697Z,19.60
2018-11-20T00:16:06.624Z,18.50
2018-11-20T00:17:06.558Z,20.00
2018-11-20T00:18:06.488Z,19.60
2018-11-20T00:19:06.422Z,19.10
2018-11-20T00:20:06.350Z,19.70
2018-11-20T00:21:06.284Z,18.50
2018-11-20T00:22:06.213Z,19.60
2018-11-20T00:23:06.155Z,19.90
2018-11-20T00:24:06.074Z,18.90
2018-11-20T00:25:06.005Z,19.10
2018-11-20T00:26:05.936Z,20.20
2018-11-20T00:27:05.880Z,19.30
2018-11-20T00:28:05.796Z,19.10
2018-11-20T00:29:05.729Z,19.30
2018-11-20T00:30:05.659Z,19.40
2018-11-20T00:31:05.591Z,19.90
2018-11-20T00:32:05.527Z,19.10
2018-11-20T00:33:05.455Z,19.20
2018-11-20T00:34:05.386Z,20.00
2018-11-20T00:35:05.315Z,20.00
2018-11-20T00:36:05.246Z,19.40
2018-11-20T00:37:05.177Z,19.80
2018-11-20T00:38:05.109Z,19.30
2018-11-20T00:39:05.049Z,20.50
2018-11-20T00:40:04.975Z,20.50
2018-11-20T00:41:04.912Z,20.00
2018-11-20T00:42:04.834Z,20.30
2018-11-20T00:43:04.763Z,20.20
2018-11-20T00:44:04.693Z,20.10
2018-11-20T00:45:04.625Z,19.60
2018-11-20T00:46:04.555Z,20.00
2018-11-20T00:47:04.498Z,19.80
2018-11-20T00:48:04.421Z,20.20
2018-11-20T00:49:04.351Z,19.90
2018-11-20T00:50:04.278Z,20.10
2018-11-20T00:51:04.211Z,20.30
2018-11-20T00:52:04.146Z,19.70
2018-11-20T00:53:04.073Z,20.00
2018-11-20T00:54:04.021Z,19.70
2018-11-20T00:55:03.935Z,19.30
2018-11-20T00:56:03.868Z,19.70
2018-11-20T00:57:03.799Z,19.40
2018-11-20T00:58:03.736Z,20.20
2018-11-20T00:59:03.673Z,21.20
2018-11-20T01:00:03.602Z,19.90
2018-11-20T01:01:03.527Z,20.30
2018-11-20T01:02:03.486Z,19.80
2018-11-20T01:03:03.385Z,19.80
2018-11-20T01:04:03.315Z,19.80
2018-11-20T01:05:03.540Z,20.50
2018-11-20T01:06:03.176Z,20.60
2018-11-20T01:07:03.106Z,19.70
2018-11-20T01:08:03.037Z,20.40
2018-11-20T01:09:02.970Z,19.70
2018-11-20T01:10:02.916Z,19.90
2018-11-20T01:11:03.449Z,20.70
2018-11-20T01:12:02.770Z,19.90
2018-11-20T01:13:02.697Z,20.30
2018-11-20T01:14:02.629Z,20.60
2018-11-20T01:15:02.563Z,19.80
2018-11-20T01:16:02.486Z,20.30
2018-11-20T01:17:02.450Z,20.80
2018-11-20T01:18:02.345Z,19.80
2018-11-20T01:19:02.285Z,20.00
2018-11-20T01:20:02.213Z,19.70
2018-11-20T01:21:02.155Z,19.70
2018-11-20T01:22:02.073Z,19.90
2018-11-20T01:23:02.004Z,20.20
2018-11-20T01:24:01.938Z,20.10
2018-11-20T01:25:01.873Z,20.40
2018-11-20T01:26:01.793Z,19.30
2018-11-20T01:27:01.725Z,19.60
2018-11-20T01:28:01.658Z,19.20
2018-11-20T01:29:01.595Z,19.00
2018-11-20T01:30:01.517Z,19.10
2018-11-20T01:31:01.451Z,19.80
2018-11-20T01:32:01.385Z,20.00
2018-11-20T01:33:01.315Z,20.10
2018-11-20T01:34:01.240Z,19.50
2018-11-20T01:35:01.174Z,20.90
2018-11-20T01:36:01.103Z,21.10
2018-11-20T01:37:01.035Z,20.10
2018-11-20T01:38:00.965Z,20.50
2018-11-20T01:39:00.898Z,19.40
2018-11-20T01:40:00.826Z,20.10
2018-11-20T01:41:00.763Z,19.60
2018-11-20T01:42:00.689Z,19.80
2018-11-20T01:43:00.623Z,19.30
2018-11-20T01:44:00.559Z,19.80
2018-11-20T01:45:00.485Z,19.50
2018-11-20T01:46:00.451Z,19.50
2018-11-20T01:47:00.345Z,19.70
2018-11-20T01:48:00.277Z,20.30
2018-11-20T01:49:00.215Z,20.40
2018-11-20T01:50:00.142Z,20.10
2018-11-20T01:51:00.077Z,19.70
2018-11-20T01:52:00.008Z,19.50
2018-11-20T01:52:59.932Z,20.10
2018-11-20T01:53:59.867Z,19.70
2018-11-20T01:54:59.801Z,19.60
2018-11-20T01:55:59.727Z,19.70
2018-11-20T01:56:59.655Z,19.10
2018-11-20T01:57:59.586Z,19.90
2018-11-20T01:58:59.517Z,19.80
2018-11-20T01:59:59.460Z,19.20
2018-11-20T02:00:59.381Z,19.30
2018-11-20T02:01:59.310Z,19.00
2018-11-20T02:02:59.237Z,19.10
2018-11-20T02:03:59.227Z,19.40
2018-11-20T02:04:59.107Z,20.40
2018-11-20T02:05:59.035Z,18.80
2018-11-20T02:06:58.965Z,19.00
2018-11-20T02:07:58.904Z,20.30
2018-11-20T02:08:58.822Z,19.20
2018-11-20T02:09:58.755Z,19.80
2018-11-20T02:10:58.691Z,19.90
2018-11-20T02:11:58.621Z,19.60
2018-11-20T02:12:58.554Z,19.70
2018-11-20T02:13:58.481Z,19.70
2018-11-20T02:14:58.416Z,19.20
2018-11-20T02:15:58.343Z,20.40
2018-11-20T02:16:58.273Z,20.00
2018-11-20T02:17:58.209Z,19.90
2018-11-20T02:18:58.138Z,19.60
2018-11-20T02:19:58.067Z,20.10
2018-11-20T02:20:58.004Z,18.70
2018-11-20T02:21:57.927Z,19.30
2018-11-20T02:22:57.861Z,18.70
2018-11-20T02:23:57.791Z,20.30
2018-11-20T02:24:57.724Z,20.30
2018-11-20T02:25:57.664Z,19.60
2018-11-20T02:26:57.596Z,19.50
2018-11-20T02:27:57.522Z,20.10
2018-11-20T02:28:57.445Z,20.50
2018-11-20T02:29:57.438Z,19.20
2018-11-20T02:30:57.305Z,20.20
2018-11-20T02:31:57.240Z,19.30
2018-11-20T02:32:57.166Z,19.90
2018-11-20T02:33:57.098Z,20.50
2018-11-20T02:34:57.029Z,19.50
2018-11-20T02:35:56.958Z,19.30
2018-11-20T02:36:56.894Z,19.10
2018-11-20T02:37:56.820Z,18.80
2018-11-20T02:38:56.759Z,21.00
2018-11-20T02:39:56.682Z,19.80
2018-11-20T02:40:56.616Z,19.30
2018-11-20T02:41:56.545Z,19.00
2018-11-20T02:42:56.484Z,19.70
2018-11-20T02:43:56.405Z,19.60
2018-11-20T02:44:56.341Z,18.90
2018-11-20T02:45:56.272Z,19.30
2018-11-20T02:46:56.213Z,19.00
2018-11-20T02:47:56.133Z,19.60
2018-11-20T02:48:56.062Z,19.50
2018-11-20T02:49:56.000Z,19.60
2018-11-20T02:50:55.923Z,19.30
2018-11-20T02:51:55.855Z,18.70
2018-11-20T02:52:55.785Z,19.90
2018-11-20T02:53:55.715Z,19.70
2018-11-20T02:54:55.647Z,19.30
2018-11-20T02:55:55.576Z,19.90
2018-11-20T02:56:55.508Z,19.00
2018-11-20T02:57:55.440Z,18.80
2018-11-20T02:58:55.367Z,19.90
2018-11-20T02:59:55.307Z,17.80
2018-11-20T03:00:55.233Z,18.20
2018-11-20T03:01:55.180Z,18.80
2018-11-20T03:02:55.094Z,19.80
2018-11-20T03:03:55.130Z,18.50
2018-11-20T03:04:54.961Z,18.80
2018-11-20T03:05:54.891Z,19.80
2018-11-20T03:06:54.816Z,18.70
2018-11-20T03:07:54.750Z,18.50
2018-11-20T03:08:54.681Z,18.40
2018-11-20T03:09:54.609Z,18.30
2018-11-20T03:10:54.540Z,18.00
2018-11-20T03:11:54.473Z,18.90
2018-11-20T03:12:54.404Z,19.30
2018-11-20T03:13:54.344Z,18.70
2018-11-20T03:14:54.265Z,19.00
2018-11-20T03:15:54.196Z,19.00
2018-11-20T03:16:54.127Z,18.20
2018-11-20T03:17:54.057Z,18.10
2018-11-20T03:18:54.010Z,18.70
2018-11-20T03:19:53.922Z,18.50
2018-11-20T03:20:53.851Z,18.50
2018-11-20T03:21:53.815Z,18.10
2018-11-20T03:22:53.708Z,18.90
2018-11-20T03:23:53.646Z,18.10
2018-11-20T03:24:53.580Z,18.20
2018-11-20T03:25:53.505Z,18.20
2018-11-20T03:26:53.485Z,18.20
2018-11-20T03:27:53.369Z,18.40
2018-11-20T03:28:53.300Z,17.30
2018-11-20T03:29:53.232Z,18.70
2018-11-20T03:30:53.163Z,19.20
2018-11-20T03:31:53.105Z,18.20
2018-11-20T03:32:53.023Z,18.50
2018-11-20T03:33:52.955Z,18.40
2018-11-20T03:34:52.889Z,18.10
2018-11-20T03:35:52.834Z,18.10
2018-11-20T03:36:52.749Z,17.60
2018-11-20T03:37:52.680Z,19.20
2018-11-20T03:38:52.610Z,18.10
2018-11-20T03:39:52.538Z,18.60
2018-11-20T03:40:52.475Z,17.90
2018-11-20T03:41:52.405Z,18.70
2018-11-20T03:42:52.336Z,18.50
2018-11-20T03:43:52.266Z,18.00
2018-11-20T03:44:52.198Z,17.60
2018-11-20T03:45:52.128Z,18.70
2018-11-20T03:46:52.063Z,17.80
2018-11-20T03:47:52.021Z,17.70
2018-11-20T03:48:51.923Z,18.00
2018-11-20T03:49:51.853Z,18.00
2018-11-20T03:50:51.786Z,18.30
2018-11-20T03:51:51.715Z,18.00
2018-11-20T03:52:51.648Z,18.30
2018-11-20T03:53:51.575Z,17.10
2018-11-20T03:54:51.510Z,17.40
2018-11-20T03:55:51.441Z,17.30
2018-11-20T03:56:51.374Z,17.60
2018-11-20T03:57:51.309Z,17.80
2018-11-20T03:58:51.233Z,17.60
2018-11-20T03:59:51.166Z,17.50
2018-11-20T04:00:51.097Z,18.70
2018-11-20T04:01:51.027Z,18.30
2018-11-20T04:02:50.962Z,18.50
2018-11-20T04:03:50.902Z,17.70
2018-11-20T04:04:50.821Z,17.50
2018-11-20T04:05:50.751Z,18.00
2018-11-20T04:06:50.685Z,17.10
2018-11-20T04:07:50.619Z,18.00
2018-11-20T04:08:50.547Z,17.50
2018-11-20T04:09:50.475Z,17.80
2018-11-20T04:10:50.407Z,17.30
2018-11-20T04:11:50.339Z,17.00
2018-11-20T04:12:50.268Z,16.90
2018-11-20T04:13:50.201Z,16.30
2018-11-20T04:14:50.132Z,17.20
2018-11-20T04:15:50.064Z,16.70
2018-11-20T04:16:49.999Z,17.40
2018-11-20T04:17:49.946Z,16.50
2018-11-20T04:18:49.857Z,16.20
2018-11-20T04:19:49.788Z,17.20
2018-11-20T04:20:49.722Z,17.30
2018-11-20T04:21:49.649Z,17.30
2018-11-20T04:22:49.583Z,18.00
2018-11-20T04:23:49.513Z,16.10
2018-11-20T04:24:49.450Z,16.30
2018-11-20T04:25:49.372Z,16.70
2018-11-20T04:26:49.309Z,16.40
2018-11-20T04:27:49.238Z,17.00
2018-11-20T04:28:49.172Z,16.60
2018-11-20T04:29:49.103Z,17.10
2018-11-20T04:30:49.032Z,16.40
2018-11-20T04:31:48.964Z,15.90
2018-11-20T04:32:48.896Z,16.30
2018-11-20T04:33:48.827Z,16.90
2018-11-20T04:34:48.757Z,16.00
2018-11-20T04:35:48.691Z,16.80
2018-11-20T04:36:48.619Z,16.60
2018-11-20T04:37:48.553Z,16.50
2018-11-20T04:38:48.483Z,15.90
2018-11-20T04:39:48.414Z,15.50
2018-11-20T04:40:48.348Z,16.20
2018-11-20T04:41:48.285Z,16.40
2018-11-20T04:42:48.209Z,15.90
2018-11-20T04:43:48.149Z,16.30
2018-11-20T04:44:48.074Z,15.90
2018-11-20T04:45:48.002Z,15.70
2018-11-20T04:46:47.936Z,15.80
2018-11-20T04:47:47.866Z,16.50
2018-11-20T04:48:47.797Z,16.40
2018-11-20T04:49:47.807Z,15.50
2018-11-20T04:50:47.661Z,16.70
2018-11-20T04:51:47.591Z,16.80
2018-11-20T04:52:47.524Z,15.90
2018-11-20T04:53:47.454Z,16.50
2018-11-20T04:54:47.386Z,15.40
2018-11-20T04:55:47.317Z,15.80
2018-11-20T04:56:47.249Z,15.90
2018-11-20T04:57:47.251Z,15.70
2018-11-20T04:58:47.114Z,16.50
2018-11-20T04:59:47.097Z,16.80
2018-11-20T05:00:46.974Z,15.20
2018-11-20T05:01:46.909Z,15.70
2018-11-20T05:02:46.843Z,16.60
2018-11-20T05:03:46.771Z,15.70
2018-11-20T05:04:46.700Z,14.80
2018-11-20T05:05:46.630Z,15.80
2018-11-20T05:06:46.700Z,15.40
2018-11-20T05:07:46.494Z,15.30
2018-11-20T05:08:46.425Z,15.00
2018-11-20T05:09:46.357Z,16.00
2018-11-20T05:10:46.289Z,14.70
2018-11-20T05:11:46.220Z,15.30
2018-11-20T05:12:46.153Z,14.70
2018-11-20T05:13:46.085Z,14.90
2018-11-20T05:14:46.040Z,14.40
2018-11-20T05:15:45.945Z,14.60
2018-11-20T05:16:45.898Z,15.10
2018-11-20T05:17:45.805Z,14.90
2018-11-20T05:18:45.737Z,14.50
2018-11-20T05:19:45.671Z,14.50
2018-11-20T05:20:45.602Z,15.10
2018-11-20T05:21:45.533Z,14.70
2018-11-20T05:22:45.464Z,14.50
2018-11-20T05:23:45.431Z,14.50
2018-11-20T05:24:45.373Z,15.10
2018-11-20T05:25:45.261Z,15.30
2018-11-20T05:26:45.217Z,14.60
2018-11-20T05:27:45.161Z,15.30
2018-11-20T05:28:45.064Z,15.20
2018-11-20T05:29:45.008Z,14.80
2018-11-20T05:30:44.979Z,13.50
2018-11-20T05:31:44.845Z,14.90
2018-11-20T05:32:44.779Z,14.50
2018-11-20T05:33:44.712Z,13.60
2018-11-20T05:34:44.647Z,13.80
2018-11-20T05:35:44.573Z,13.90
2018-11-20T05:36:44.503Z,14.80
2018-11-20T05:37:44.445Z,14.20
2018-11-20T05:38:44.365Z,13.80
2018-11-20T05:39:44.321Z,14.60
2018-11-20T05:40:44.228Z,15.30
2018-11-20T05:41:44.160Z,14.50
2018-11-20T05:42:44.088Z,13.80
2018-11-20T05:43:44.025Z,14.20
2018-11-20T05:44:43.952Z,14.20
2018-11-20T05:45:43.905Z,13.60
2018-11-20T05:46:43.844Z,14.80
2018-11-20T05:47:43.753Z,13.70
2018-11-20T05:48:43.694Z,13.80
2018-11-20T05:49:43.612Z,14.20
2018-11-20T05:50:43.561Z,13.70
2018-11-20T05:51:43.472Z,13.10
2018-11-20T05:52:43.412Z,13.40
2018-11-20T05:53:43.334Z,13.50
2018-11-20T05:54:43.264Z,14.00
2018-11-20T05:55:43.200Z,13.40
2018-11-20T05:56:43.127Z,13.70
2018-11-20T05:57:43.060Z,13.20
2018-11-20T05:58:42.992Z,14.10
2018-11-20T05:59:42.922Z,14.40
2018-11-20T06:00:42.856Z,13.10
2018-11-20T06:01:42.785Z,13.60
2018-11-20T06:02:42.721Z,13.70
2018-11-20T06:03:42.650Z,13.80
2018-11-20T06:04:42.581Z,13.80
2018-11-20T06:05:42.506Z,13.60
2018-11-20T06:06:42.443Z,13.30
2018-11-20T06:07:42.373Z,13.50
2018-11-20T06:08:42.305Z,14.00
2018-11-20T06:09:42.240Z,13.50
2018-11-20T06:10:42.168Z,13.40
2018-11-20T06:11:42.122Z,13.10
2018-11-20T06:12:42.055Z,12.60
2018-11-20T06:13:41.964Z,13.00
2018-11-20T06:14:41.896Z,13.20
2018-11-20T06:15:41.826Z,13.70
2018-11-20T06:16:41.758Z,12.40
2018-11-20T06:17:41.687Z,13.00
2018-11-20T06:18:41.627Z,13.60
2018-11-20T06:19:41.550Z,13.50
2018-11-20T06:20:41.482Z,13.10
2018-11-20T06:21:41.428Z,13.20
2018-11-20T06:22:41.344Z,12.70
2018-11-20T06:23:41.280Z,12.20
2018-11-20T06:24:41.204Z,12.50
2018-11-20T06:25:41.137Z,12.80
2018-11-20T06:26:41.066Z,11.70
2018-11-20T06:27:41.003Z,12.30
2018-11-20T06:28:41.277Z,12.40
2018-11-20T06:29:40.864Z,12.40
2018-11-20T06:30:40.792Z,12.60
2018-11-20T06:31:40.745Z,12.30
2018-11-20T06:32:40.658Z,12.50
2018-11-20T06:33:40.593Z,12.40
2018-11-20T06:34:40.551Z,12.40
2018-11-20T06:35:40.464Z,12.50
2018-11-20T06:36:40.382Z,12.50
2018-11-20T06:37:40.311Z,12.70
2018-11-20T06:38:40.252Z,12.70
2018-11-20T06:39:40.178Z,12.60
2018-11-20T06:40:40.112Z,11.90
2018-11-20T06:41:40.048Z,12.50
2018-11-20T06:42:39.973Z,12.30
2018-11-20T06:43:39.904Z,12.50
2018-11-20T06:44:39.832Z,12.10
2018-11-20T06:45:39.790Z,12.40
2018-11-20T06:46:39.698Z,12.40
2018-11-20T06:47:39.631Z,11.90
2018-11-20T06:48:39.564Z,11.90
2018-11-20T06:49:39.492Z,12.30
2018-11-20T06:50:39.424Z,12.30
2018-11-20T06:51:39.356Z,11.60
2018-11-20T06:52:39.313Z,11.80
2018-11-20T06:53:39.376Z,11.90
2018-11-20T06:54:39.163Z,11.40
2018-11-20T06:55:39.084Z,11.50
2018-11-20T06:56:39.015Z,12.10
2018-11-20T06:57:38.947Z,11.60
2018-11-20T06:58:38.876Z,11.50
2018-11-20T06:59:38.815Z,12.30
2018-11-20T07:00:38.742Z,11.70
2018-11-20T07:01:38.833Z,11.90
2018-11-20T07:02:38.611Z,11.20
2018-11-20T07:03:38.534Z,11.60
2018-11-20T07:04:38.464Z,11.60
2018-11-20T07:05:38.400Z,10.80
2018-11-20T07:06:38.333Z,11.50
2018-11-20T07:07:38.400Z,12.30
2018-11-20T07:08:38.209Z,11.30
2018-11-20T07:09:38.125Z,11.50
2018-11-20T07:10:38.069Z,11.70
2018-11-20T07:11:37.990Z,12.20
2018-11-20T07:12:37.924Z,12.10
2018-11-20T07:13:37.853Z,11.40
2018-11-20T07:14:37.799Z,11.30
2018-11-20T07:15:37.901Z,11.60
2018-11-20T07:16:37.652Z,11.80
2018-11-20T07:17:37.585Z,11.90
2018-11-20T07:18:37.512Z,11.90
2018-11-20T07:19:37.446Z,11.60
2018-11-20T07:20:37.378Z,12.00
2018-11-20T07:21:37.311Z,11.80
2018-11-20T07:22:37.362Z,10.80
2018-11-20T07:23:37.210Z,11.50
2018-11-20T07:24:37.111Z,11.20
2018-11-20T07:25:37.038Z,11.90
2018-11-20T07:26:36.965Z,11.30
2018-11-20T07:27:36.901Z,11.70
2018-11-20T07:28:36.835Z,10.80
2018-11-20T07:29:36.834Z,10.90
2018-11-20T07:30:36.719Z,11.10
2018-11-20T07:31:36.637Z,11.00
2018-11-20T07:32:36.561Z,10.80
2018-11-20T07:33:36.495Z,11.60
2018-11-20T07:34:36.454Z,11.10
2018-11-20T07:35:36.357Z,11.20
2018-11-20T07:36:36.331Z,10.60
2018-11-20T07:37:36.221Z,11.80
2018-11-20T07:38:36.152Z,11.20
2018-11-20T07:39:36.085Z,11.60
2018-11-20T07:40:36.019Z,11.30
2018-11-20T07:41:35.948Z,11.00
2018-11-20T07:42:35.883Z,11.40
2018-11-20T07:43:35.892Z,11.10
2018-11-20T07:44:35.747Z,11.50
2018-11-20T07:45:35.672Z,11.90
2018-11-20T07:46:35.615Z,11.20
2018-11-20T07:47:35.541Z,11.20
2018-11-20T07:48:35.475Z,10.60
2018-11-20T07:49:35.403Z,11.50
2018-11-20T07:50:35.339Z,11.30
2018-11-20T07:51:35.296Z,11.10
2018-11-20T07:52:35.202Z,10.50
2018-11-20T07:53:35.130Z,10.30
2018-11-20T07:54:35.066Z,10.80
2018-11-20T07:55:35.043Z,11.60
2018-11-20T07:56:34.934Z,11.30
2018-11-20T07:57:34.864Z,10.70
2018-11-20T07:58:34.804Z,11.00
2018-11-20T07:59:34.727Z,11.00
2018-11-20T08:00:34.659Z,10.30
2018-11-20T08:01:34.596Z,10.60
2018-11-20T08:02:34.524Z,10.60
2018-11-20T08:03:34.455Z,11.30
2018-11-20T08:04:34.388Z,10.90
2018-11-20T08:05:34.318Z,10.70
2018-11-20T08:06:34.253Z,10.60
2018-11-20T08:07:34.188Z,10.40
2018-11-20T08:08:34.196Z,10.40
2018-11-20T08:09:34.086Z,10.60
2018-11-20T08:10:33.981Z,10.40
2018-11-20T08:11:33.913Z,10.20
2018-11-20T08:12:33.864Z,10.90
2018-11-20T08:13:33.778Z,10.20
2018-11-20T08:14:33.712Z,10.80
2018-11-20T08:15:33.743Z,10.20
2018-11-20T08:16:33.586Z,9.80
2018-11-20T08:17:33.507Z,9.90
2018-11-20T08:18:33.441Z,9.80
2018-11-20T08:19:33.373Z,9.80
2018-11-20T08:20:33.317Z,9.30
2018-11-20T08:21:33.242Z,9.30
2018-11-20T08:22:33.166Z,9.60
2018-11-20T08:23:33.102Z,9.70
2018-11-20T08:24:33.033Z,9.20
2018-11-20T08:25:33.118Z,8.70
2018-11-20T08:26:32.899Z,10.00
2018-11-20T08:27:32.841Z,8.80
2018-11-20T08:28:32.762Z,9.60
2018-11-20T08:29:32.693Z,9.50
2018-11-20T08:30:32.680Z,9.40
2018-11-20T08:31:32.557Z,10.30
2018-11-20T08:32:32.506Z,9.50
2018-11-20T08:33:32.464Z,9.50
2018-11-20T08:34:32.358Z,9.60
2018-11-20T08:35:32.288Z,9.00
2018-11-20T08:36:32.219Z,9.30
2018-11-20T08:37:32.148Z,9.80
2018-11-20T08:38:32.096Z,8.70
2018-11-20T08:39:32.021Z,9.40
2018-11-20T08:40:31.948Z,9.20
2018-11-20T08:41:31.889Z,9.30
2018-11-20T08:42:31.813Z,9.00
2018-11-20T08:43:31.755Z,9.30
2018-11-20T08:44:31.677Z,8.80
2018-11-20T08:45:31.613Z,8.90
2018-11-20T08:46:31.572Z,9.20
2018-11-20T08:47:31.532Z,9.50
2018-11-20T08:48:31.534Z,8.90
2018-11-20T08:49:31.355Z,9.00
2018-11-20T08:50:31.271Z,9.10
2018-11-20T08:51:31.215Z,8.70
2018-11-20T08:52:31.145Z,7.80
2018-11-20T08:53:31.072Z,8.30
2018-11-20T08:54:31.001Z,8.80
2018-11-20T08:55:30.935Z,8.00
2018-11-20T08:56:30.868Z,8.20
2018-11-20T08:57:30.806Z,8.20
2018-11-20T08:58:30.734Z,7.50
2018-11-20T08:59:30.662Z,7.60
2018-11-20T09:00:30.596Z,8.60
2018-11-20T09:01:30.529Z,8.20
2018-11-20T09:02:30.554Z,7.80
2018-11-20T09:03:30.394Z,8.40
2018-11-20T09:04:30.327Z,7.90
2018-11-20T09:05:30.271Z,8.10
2018-11-20T09:06:30.194Z,8.00
2018-11-20T09:07:30.132Z,7.80
2018-11-20T09:08:30.059Z,8.10
2018-11-20T09:09:30.006Z,7.50
2018-11-20T09:10:30.001Z,7.60
2018-11-20T09:11:29.856Z,8.10
2018-11-20T09:12:29.787Z,7.50
2018-11-20T09:13:29.748Z,8.30
2018-11-20T09:14:29.651Z,7.80
2018-11-20T09:15:29.584Z,7.90
2018-11-20T09:16:29.517Z,7.80
2018-11-20T09:17:29.450Z,7.90
2018-11-20T09:18:29.387Z,7.50
2018-11-20T09:19:29.316Z,7.70
2018-11-20T09:20:29.310Z,8.50
2018-11-20T09:21:29.179Z,7.90
2018-11-20T09:22:29.111Z,8.20
2018-11-20T09:23:29.047Z,8.00
2018-11-20T09:24:29.010Z,7.70
2018-11-20T09:25:28.928Z,8.20
2018-11-20T09:26:28.842Z,8.10
2018-11-20T09:27:28.799Z,8.30
2018-11-20T09:28:28.709Z,8.20
2018-11-20T09:29:28.645Z,7.90
2018-11-20T09:30:28.583Z,7.90
2018-11-20T09:31:28.509Z,8.40
2018-11-20T09:32:28.465Z,7.70
2018-11-20T09:33:28.371Z,8.30
2018-11-20T09:34:28.356Z,7.80
2018-11-20T09:35:28.505Z,8.00
2018-11-20T09:36:28.178Z,7.50
2018-11-20T09:37:28.103Z,6.90
2018-11-20T09:38:28.032Z,7.60
2018-11-20T09:39:27.969Z,6.90
2018-11-20T09:40:27.903Z,7.80
2018-11-20T09:41:27.835Z,7.10
2018-11-20T09:42:27.765Z,7.20
2018-11-20T09:43:27.697Z,7.00
2018-11-20T09:44:27.631Z,7.90
2018-11-20T09:45:27.565Z,7.60
2018-11-20T09:46:27.519Z,8.30
2018-11-20T09:47:27.433Z,8.00
2018-11-20T09:48:35.663Z,8.00
2018-11-20T09:50:20.636Z,7.60
2018-11-20T09:51:20.566Z,7.60
2018-11-20T09:52:20.493Z,7.60
2018-11-20T09:53:20.414Z,7.40
2018-11-20T09:54:20.407Z,7.80
2018-11-20T09:55:20.280Z,6.90
2018-11-20T09:56:20.204Z,7.40
2018-11-20T09:57:20.136Z,7.60
2018-11-20T09:58:20.073Z,7.30
2018-11-20T09:59:20.097Z,7.40
2018-11-20T10:00:19.936Z,7.40
2018-11-20T10:01:19.869Z,7.70
2018-11-20T10:02:19.801Z,7.20
2018-11-20T10:03:19.735Z,7.20
2018-11-20T10:04:19.681Z,7.20
2018-11-20T10:05:19.599Z,6.90
2018-11-20T10:06:19.539Z,7.10
2018-11-20T10:07:19.639Z,6.70
2018-11-20T10:08:19.401Z,7.60
2018-11-20T10:09:19.333Z,6.90
2018-11-20T10:10:19.266Z,7.70
2018-11-20T10:11:19.205Z,7.10
2018-11-20T10:12:19.131Z,7.60
2018-11-20T10:13:19.065Z,6.80
2018-11-20T10:14:19.080Z,7.30
2018-11-20T10:15:18.995Z,7.10
2018-11-20T10:16:18.861Z,6.70
2018-11-20T10:17:18.804Z,7.10
2018-11-20T10:18:18.734Z,7.20
2018-11-20T10:19:18.661Z,6.90
2018-11-20T10:20:18.595Z,6.40
2018-11-20T10:21:18.879Z,7.10
2018-11-20T10:22:18.462Z,7.20
2018-11-20T10:23:18.401Z,6.70
2018-11-20T10:24:18.329Z,7.30
2018-11-20T10:25:18.335Z,6.40
2018-11-20T10:26:18.224Z,7.30
2018-11-20T10:27:18.139Z,6.80
2018-11-20T10:28:18.066Z,6.90
2018-11-20T10:29:17.987Z,7.00
2018-11-20T10:30:17.924Z,7.10
2018-11-20T10:31:17.852Z,7.00
2018-11-20T10:32:17.788Z,6.90
2018-11-20T10:33:17.723Z,7.20
2018-11-20T10:34:17.682Z,7.00
2018-11-20T10:35:17.598Z,7.00
2018-11-20T10:36:17.523Z,6.80
2018-11-20T10:37:17.456Z,7.00
2018-11-20T10:38:17.388Z,7.20
2018-11-20T10:39:17.321Z,7.30
2018-11-20T10:40:17.265Z,6.90
2018-11-20T10:41:17.196Z,7.10
2018-11-20T10:42:17.135Z,7.30
2018-11-20T10:43:17.050Z,7.30
2018-11-20T10:44:16.984Z,7.70
2018-11-20T10:45:16.933Z,7.60
2018-11-20T10:46:16.975Z,7.90
2018-11-20T10:47:16.784Z,7.20
2018-11-20T10:48:16.720Z,7.20
2018-11-20T10:49:16.652Z,6.60
2018-11-20T10:50:16.584Z,7.20
2018-11-20T10:51:16.521Z,7.10
2018-11-20T10:52:16.451Z,7.20
2018-11-20T10:53:16.393Z,7.30
2018-11-20T10:54:16.314Z,7.00
2018-11-20T10:55:16.249Z,6.90
2018-11-20T10:56:16.191Z,6.70
2018-11-20T10:57:16.118Z,6.90
2018-11-20T10:58:16.055Z,6.60
2018-11-20T10:59:15.983Z,6.80
2018-11-20T11:00:15.923Z,6.60
2018-11-20T11:01:15.852Z,6.50
2018-11-20T11:02:15.780Z,6.70
2018-11-20T11:03:15.714Z,6.70
2018-11-20T11:04:15.694Z,6.80
2018-11-20T11:05:15.581Z,6.70
2018-11-20T11:06:15.563Z,6.40
2018-11-20T11:07:15.618Z,6.20
2018-11-20T11:08:15.489Z,6.70
2018-11-20T11:09:15.313Z,7.00
2018-11-20T11:10:15.248Z,6.40
2018-11-20T11:11:15.184Z,6.40
2018-11-20T11:12:15.173Z,6.90
2018-11-20T11:13:15.049Z,6.60
2018-11-20T11:14:14.980Z,6.60
2018-11-20T11:15:14.910Z,6.90
2018-11-20T11:16:14.849Z,6.80
2018-11-20T11:17:14.782Z,6.30
2018-11-20T11:18:14.761Z,6.60
2018-11-20T11:19:14.649Z,6.80
2018-11-20T11:20:14.623Z,6.60
2018-11-20T11:21:14.513Z,6.90
2018-11-20T11:22:14.453Z,6.90
2018-11-20T11:23:14.385Z,6.70
2018-11-20T11:24:14.313Z,7.00
2018-11-20T11:25:14.247Z,7.00
2018-11-20T11:26:14.187Z,6.90
2018-11-20T11:27:14.120Z,6.50
2018-11-20T11:28:14.049Z,6.60
2018-11-20T11:29:13.986Z,6.80
2018-11-20T11:30:13.915Z,6.90
2018-11-20T11:31:13.856Z,6.50
2018-11-20T11:32:13.790Z,7.10
2018-11-20T11:33:13.715Z,6.70
2018-11-20T11:34:13.650Z,6.50
2018-11-20T11:35:13.589Z,6.50
2018-11-20T11:36:13.518Z,6.60
2018-11-20T11:37:13.446Z,6.30
2018-11-20T11:38:13.409Z,6.50
2018-11-20T11:39:13.317Z,6.20
2018-11-20T11:40:13.293Z,6.40
2018-11-20T11:41:13.187Z,6.30
2018-11-20T11:42:13.127Z,6.20
2018-11-20T11:43:13.052Z,7.00
2018-11-20T11:44:12.988Z,7.00
2018-11-20T11:45:12.931Z,7.20
2018-11-20T11:46:12.854Z,6.50
2018-11-20T11:47:12.789Z,7.20
2018-11-20T11:48:12.722Z,7.00
2018-11-20T11:49:12.652Z,6.80
2018-11-20T11:50:12.585Z,6.50
2018-11-20T11:51:12.518Z,6.70
2018-11-20T11:52:12.458Z,6.60
2018-11-20T11:53:12.388Z,6.60
2018-11-20T11:54:12.358Z,6.90
2018-11-20T11:55:12.258Z,7.00
2018-11-20T11:56:12.185Z,6.80
2018-11-20T11:57:12.120Z,7.10
2018-11-20T11:58:12.054Z,7.50
2018-11-20T11:59:11.989Z,7.20
2018-11-20T12:00:11.922Z,7.20
2018-11-20T12:01:11.855Z,6.80
2018-11-20T12:03:11.724Z,6.90
2018-11-20T12:04:11.658Z,7.00
2018-11-20T12:05:11.586Z,7.40
2018-11-20T12:06:11.522Z,7.20
2018-11-20T12:07:11.459Z,6.70
2018-11-20T12:08:11.397Z,6.80
2018-11-20T12:09:11.329Z,7.10
2018-11-20T12:10:11.257Z,6.90
2018-11-20T12:11:11.189Z,7.00
2018-11-20T12:12:11.121Z,6.90
2018-11-20T12:13:11.057Z,6.70
2018-11-20T12:14:10.988Z,7.30
2018-11-20T12:15:10.923Z,6.90
2018-11-20T12:16:10.869Z,7.00
2018-11-20T12:17:10.796Z,7.00
2018-11-20T12:18:10.726Z,7.10
2018-11-20T12:19:10.657Z,6.80
2018-11-20T12:20:10.813Z,7.00
2018-11-20T12:21:10.528Z,7.40
2018-11-20T12:22:10.458Z,7.40
2018-11-20T12:23:10.394Z,7.10
2018-11-20T12:24:10.325Z,6.60
2018-11-20T12:25:10.259Z,6.70
2018-11-20T12:26:10.189Z,7.10
2018-11-20T12:27:10.126Z,8.00
2018-11-20T12:28:10.059Z,7.90
2018-11-20T12:29:09.993Z,7.40
2018-11-20T12:30:09.931Z,7.20
2018-11-20T12:31:11.794Z,7.00
2018-11-20T12:32:09.792Z,7.40
2018-11-20T12:33:09.726Z,7.40
2018-11-20T12:34:09.661Z,7.20
2018-11-20T12:35:09.597Z,7.00
2018-11-20T12:36:09.527Z,7.70
2018-11-20T12:37:09.468Z,6.90
2018-11-20T12:38:09.401Z,7.10
2018-11-20T12:39:09.327Z,6.90
2018-11-20T12:40:09.264Z,7.50
2018-11-20T12:41:09.749Z,7.20
2018-11-20T12:42:09.802Z,7.40
2018-11-20T12:43:09.059Z,9.00
2018-11-20T12:44:09.038Z,9.40
2018-11-20T12:45:08.930Z,7.50
2018-11-20T12:46:13.087Z,8.10
2018-11-20T12:47:09.391Z,7.30
2018-11-20T12:48:08.734Z,7.10
2018-11-20T12:49:08.686Z,7.40
2018-11-20T12:50:10.549Z,7.10
2018-11-20T12:51:08.529Z,7.50
2018-11-20T12:52:08.464Z,7.40
2018-11-20T12:53:08.398Z,7.20
2018-11-20T12:54:08.334Z,7.00
2018-11-20T12:55:08.270Z,7.20
2018-11-20T12:56:08.210Z,6.80
2018-11-20T12:57:08.136Z,7.30
2018-11-20T12:58:08.065Z,6.70
2018-11-20T12:59:07.998Z,6.40
2018-11-20T13:00:07.934Z,6.60
2018-11-20T13:01:07.866Z,6.70
2018-11-20T13:02:07.808Z,7.20